createdAt,value
2019-01-30T00:00:15.354Z,25.10
2019-01-30T00:01:15.362Z,23.50
2019-01-30T00:02:15.335Z,26.10
2019-01-30T00:03:15.338Z,27.90
2019-01-30T00:04:15.651Z,23.70
2019-01-30T00:05:15.317Z,22.80
2019-01-30T00:06:15.290Z,25.70
2019-01-30T00:07:15.290Z,24.20
2019-01-30T00:08:15.283Z,25.40
2019-01-30T00:09:15.277Z,26.90
2019-01-30T00:10:15.251Z,26.30
2019-01-30T00:11:15.238Z,25.70
2019-01-30T00:12:15.223Z,29.50
2019-01-30T00:13:15.225Z,25.80
2019-01-30T00:14:15.213Z,24.90
2019-01-30T00:15:15.196Z,26.90
2019-01-30T00:16:15.181Z,28.90
2019-01-30T00:17:15.185Z,29.20
2019-01-30T00:18:15.161Z,23.00
2019-01-30T00:19:15.161Z,26.00
2019-01-30T00:20:15.175Z,23.50
2019-01-30T00:21:15.132Z,24.60
2019-01-30T00:22:15.112Z,25.30
2019-01-30T00:23:15.111Z,24.50
2019-01-30T00:24:15.125Z,23.00
2019-01-30T00:25:15.150Z,26.00
2019-01-30T00:26:15.072Z,23.70
2019-01-30T00:27:15.065Z,28.00
2019-01-30T00:28:15.051Z,26.60
2019-01-30T00:29:15.066Z,26.60
2019-01-30T00:30:15.031Z,25.40
2019-01-30T00:31:15.022Z,24.60
2019-01-30T00:32:15.235Z,27.00
2019-01-30T00:33:15.078Z,25.50
2019-01-30T00:34:15.017Z,29.80
2019-01-30T00:35:14.981Z,25.90
2019-01-30T00:36:14.957Z,23.60
2019-01-30T00:37:14.971Z,28.90
2019-01-30T00:38:14.941Z,27.50
2019-01-30T00:39:14.935Z,25.10
2019-01-30T00:40:14.927Z,24.50
2019-01-30T00:41:14.918Z,25.40
2019-01-30T00:42:14.902Z,23.90
2019-01-30T00:43:14.906Z,28.10
2019-01-30T00:44:14.884Z,24.90
2019-01-30T00:45:14.878Z,27.00
2019-01-30T00:46:14.859Z,24.70
2019-01-30T00:47:15.886Z,27.90
2019-01-30T00:48:14.847Z,25.00
2019-01-30T00:49:14.836Z,26.80
2019-01-30T00:50:14.812Z,25.50
2019-01-30T00:51:14.799Z,20.80
2019-01-30T00:52:14.790Z,25.70
2019-01-30T00:53:14.792Z,28.20
2019-01-30T00:54:14.780Z,24.30
2019-01-30T00:55:14.755Z,24.00
2019-01-30T00:56:14.744Z,25.90
2019-01-30T00:57:14.738Z,24.50
2019-01-30T00:58:14.728Z,25.50
2019-01-30T00:59:14.717Z,25.30
2019-01-30T01:00:14.898Z,21.00
2019-01-30T01:01:14.690Z,26.20
2019-01-30T01:02:14.677Z,24.10
2019-01-30T01:03:14.667Z,24.20
2019-01-30T01:04:14.661Z,27.90
2019-01-30T01:05:14.663Z,30.00
2019-01-30T01:06:14.670Z,22.70
2019-01-30T01:07:14.630Z,26.10
2019-01-30T01:08:14.610Z,25.20
2019-01-30T01:09:14.604Z,23.90
2019-01-30T01:10:14.595Z,28.00
2019-01-30T01:11:14.603Z,30.30
2019-01-30T01:12:14.603Z,25.40
2019-01-30T01:13:14.737Z,26.40
2019-01-30T01:14:14.554Z,30.40
2019-01-30T01:15:14.550Z,23.30
2019-01-30T01:16:14.542Z,26.00
2019-01-30T01:17:14.533Z,25.10
2019-01-30T01:18:14.512Z,26.30
2019-01-30T01:19:14.495Z,27.80
2019-01-30T01:20:14.483Z,29.00
2019-01-30T01:21:14.471Z,24.50
2019-01-30T01:22:14.485Z,24.30
2019-01-30T01:23:14.544Z,23.00
2019-01-30T01:24:14.438Z,27.50
2019-01-30T01:25:14.434Z,26.60
2019-01-30T01:26:14.425Z,23.30
2019-01-30T01:27:14.410Z,25.80
2019-01-30T01:28:14.419Z,26.70
2019-01-30T01:29:14.471Z,25.80
2019-01-30T01:30:24.586Z,25.20
2019-01-30T01:31:15.383Z,24.20
2019-01-30T01:32:14.346Z,24.30
2019-01-30T01:33:14.348Z,27.70
2019-01-30T01:34:14.350Z,26.50
2019-01-30T01:35:14.345Z,24.10
2019-01-30T01:36:14.308Z,22.30
2019-01-30T01:37:14.293Z,27.80
2019-01-30T01:38:14.298Z,26.10
2019-01-30T01:39:14.280Z,24.90
2019-01-30T01:40:14.284Z,25.00
2019-01-30T01:41:14.262Z,28.20
2019-01-30T01:42:14.366Z,24.60
2019-01-30T01:43:14.234Z,26.10
2019-01-30T01:44:14.234Z,26.50
2019-01-30T01:45:14.219Z,25.80
2019-01-30T01:46:14.226Z,22.30
2019-01-30T01:47:14.194Z,25.10
2019-01-30T01:48:14.177Z,23.10
2019-01-30T01:49:14.163Z,25.30
2019-01-30T01:50:14.157Z,24.70
2019-01-30T01:51:14.181Z,25.90
2019-01-30T01:52:14.131Z,24.30
2019-01-30T01:53:14.125Z,23.40
2019-01-30T01:54:14.152Z,25.30
2019-01-30T01:55:14.106Z,24.90
2019-01-30T01:56:14.110Z,27.20
2019-01-30T01:57:14.092Z,26.60
2019-01-30T01:58:14.071Z,29.30
2019-01-30T01:59:14.067Z,27.70
2019-01-30T02:00:14.049Z,27.20
2019-01-30T02:01:14.038Z,23.50
2019-01-30T02:02:14.031Z,25.50
2019-01-30T02:03:14.017Z,27.70
2019-01-30T02:04:14.077Z,23.70
2019-01-30T02:05:13.990Z,26.40
2019-01-30T02:06:13.983Z,25.80
2019-01-30T02:07:13.971Z,27.80
2019-01-30T02:08:13.966Z,23.80
2019-01-30T02:09:13.951Z,28.50
2019-01-30T02:10:13.943Z,28.40
2019-01-30T02:11:13.929Z,30.10
2019-01-30T02:12:13.914Z,25.00
2019-01-30T02:13:13.911Z,25.60
2019-01-30T02:14:13.891Z,24.30
2019-01-30T02:15:13.891Z,25.30
2019-01-30T02:16:13.877Z,24.80
2019-01-30T02:17:13.894Z,25.40
2019-01-30T02:18:13.855Z,28.10
2019-01-30T02:19:13.847Z,27.40
2019-01-30T02:20:13.847Z,27.20
2019-01-30T02:21:13.889Z,22.70
2019-01-30T02:22:13.812Z,27.90
2019-01-30T02:23:13.792Z,23.50
2019-01-30T02:24:13.796Z,23.80
2019-01-30T02:25:13.772Z,29.60
2019-01-30T02:26:13.765Z,23.70
2019-01-30T02:27:13.752Z,24.30
2019-01-30T02:28:13.746Z,26.80
2019-01-30T02:29:13.758Z,24.80
2019-01-30T02:30:13.726Z,27.60
2019-01-30T02:31:13.720Z,25.30
2019-01-30T02:32:13.701Z,26.40
2019-01-30T02:33:13.684Z,23.40
2019-01-30T02:34:13.675Z,21.00
2019-01-30T02:35:13.669Z,26.40
2019-01-30T02:36:13.656Z,24.60
2019-01-30T02:37:13.640Z,27.70
2019-01-30T02:38:13.642Z,26.70
2019-01-30T02:39:13.620Z,25.40
2019-01-30T02:40:13.598Z,24.10
2019-01-30T02:41:13.603Z,23.50
2019-01-30T02:42:13.609Z,25.30
2019-01-30T02:43:13.577Z,28.50
2019-01-30T02:44:13.587Z,24.10
2019-01-30T02:45:13.582Z,22.80
2019-01-30T02:46:13.542Z,27.10
2019-01-30T02:47:13.541Z,25.30
2019-01-30T02:48:13.556Z,25.90
2019-01-30T02:49:13.506Z,23.20
2019-01-30T02:50:13.504Z,23.40
2019-01-30T02:51:13.513Z,26.90
2019-01-30T02:52:13.471Z,23.50
2019-01-30T02:53:13.475Z,27.10
2019-01-30T02:54:13.456Z,26.60
2019-01-30T02:55:13.466Z,24.40
2019-01-30T02:56:13.426Z,25.40
2019-01-30T02:57:13.422Z,26.30
2019-01-30T02:58:13.407Z,25.60
2019-01-30T02:59:13.397Z,23.90
2019-01-30T03:00:13.382Z,26.90
2019-01-30T03:01:13.385Z,27.30
2019-01-30T03:02:13.364Z,26.50
2019-01-30T03:03:13.348Z,24.70
2019-01-30T03:04:13.347Z,25.60
2019-01-30T03:05:13.370Z,26.70
2019-01-30T03:06:13.337Z,26.00
2019-01-30T03:07:13.320Z,24.00
2019-01-30T03:08:13.303Z,27.00
2019-01-30T03:09:13.291Z,24.20
2019-01-30T03:10:13.322Z,26.30
2019-01-30T03:11:13.262Z,23.80
2019-01-30T03:12:13.259Z,25.40
2019-01-30T03:13:13.237Z,25.10
2019-01-30T03:14:13.236Z,26.10
2019-01-30T03:15:13.221Z,24.70
2019-01-30T03:16:13.198Z,25.40
2019-01-30T03:17:13.196Z,25.30
2019-01-30T03:18:13.196Z,23.00
2019-01-30T03:19:13.296Z,24.10
2019-01-30T03:20:13.223Z,23.00
2019-01-30T03:21:13.196Z,24.00
2019-01-30T03:22:13.197Z,25.00
2019-01-30T03:23:13.127Z,24.60
2019-01-30T03:24:13.128Z,20.70
2019-01-30T03:25:13.105Z,23.60
2019-01-30T03:26:13.097Z,26.20
2019-01-30T03:27:13.086Z,24.00
2019-01-30T03:28:13.073Z,22.30
2019-01-30T03:29:13.067Z,23.30
2019-01-30T03:30:13.054Z,21.60
2019-01-30T03:31:17.523Z,23.80
2019-01-30T03:32:14.058Z,23.40
2019-01-30T03:33:13.026Z,25.10
2019-01-30T03:34:12.999Z,25.60
2019-01-30T03:35:13.003Z,24.60
2019-01-30T03:36:13.033Z,23.70
2019-01-30T03:37:12.968Z,27.60
2019-01-30T03:38:20.134Z,26.10
2019-01-30T03:39:55.626Z,24.20
2019-01-30T03:40:55.617Z,28.10
2019-01-30T03:41:55.596Z,27.30
2019-01-30T03:42:55.581Z,26.10
2019-01-30T03:43:55.572Z,24.40
2019-01-30T03:44:55.559Z,26.00
2019-01-30T03:45:55.583Z,26.60
2019-01-30T03:46:55.538Z,23.50
2019-01-30T03:47:55.534Z,27.70
2019-01-30T03:48:55.515Z,25.50
2019-01-30T03:49:55.509Z,25.90
2019-01-30T03:50:55.498Z,24.20
2019-01-30T03:51:55.482Z,25.10
2019-01-30T03:52:55.509Z,28.60
2019-01-30T03:53:55.461Z,23.90
2019-01-30T03:54:55.451Z,24.60
2019-01-30T03:55:55.489Z,28.10
2019-01-30T03:56:55.441Z,21.70
2019-01-30T03:57:55.419Z,22.60
2019-01-30T03:58:55.406Z,22.70
2019-01-30T03:59:55.387Z,27.40
2019-01-30T04:00:55.384Z,27.50
2019-01-30T04:01:55.383Z,28.30
2019-01-30T04:02:55.363Z,23.60
2019-01-30T04:03:55.352Z,24.90
2019-01-30T04:04:55.341Z,25.20
2019-01-30T04:05:55.329Z,23.70
2019-01-30T04:06:55.332Z,23.70
2019-01-30T04:07:55.302Z,26.30
2019-01-30T04:08:55.303Z,27.20
2019-01-30T04:09:55.288Z,23.80
2019-01-30T04:10:55.267Z,24.30
2019-01-30T04:11:55.255Z,25.00
2019-01-30T04:12:55.243Z,22.80
2019-01-30T04:13:55.243Z,23.80
2019-01-30T04:14:55.226Z,24.60
2019-01-30T04:15:55.211Z,26.70
2019-01-30T04:16:55.202Z,25.10
2019-01-30T04:17:55.198Z,25.50
2019-01-30T04:18:55.181Z,22.60
2019-01-30T04:19:55.173Z,22.00
2019-01-30T04:20:55.161Z,22.20
2019-01-30T04:21:55.148Z,21.70
2019-01-30T04:22:55.136Z,23.90
2019-01-30T04:23:55.131Z,25.50
2019-01-30T04:24:55.113Z,22.80
2019-01-30T04:25:55.113Z,23.10
2019-01-30T04:26:55.095Z,19.10
2019-01-30T04:27:55.077Z,21.20
2019-01-30T04:28:55.066Z,22.20
2019-01-30T04:29:55.057Z,22.80
2019-01-30T04:30:55.050Z,23.50
2019-01-30T04:31:55.064Z,23.00
2019-01-30T04:32:55.019Z,19.60
2019-01-30T04:33:55.024Z,22.80
2019-01-30T04:34:54.998Z,20.50
2019-01-30T04:35:54.992Z,20.40
2019-01-30T04:36:54.985Z,22.80
2019-01-30T04:37:54.960Z,20.90
2019-01-30T04:38:54.970Z,23.60
2019-01-30T04:39:54.955Z,22.90
2019-01-30T04:40:54.947Z,21.80
2019-01-30T04:41:54.935Z,22.80
2019-01-30T04:42:54.914Z,24.10
2019-01-30T04:43:54.903Z,20.80
2019-01-30T04:44:54.887Z,23.50
2019-01-30T04:45:54.886Z,22.80
2019-01-30T04:46:54.867Z,22.10
2019-01-30T04:47:54.868Z,25.70
2019-01-30T04:48:54.849Z,21.30
2019-01-30T04:49:54.825Z,24.70
2019-01-30T04:50:54.913Z,23.10
2019-01-30T04:51:54.815Z,22.20
2019-01-30T04:52:54.797Z,20.70
2019-01-30T04:53:54.803Z,25.30
2019-01-30T04:54:54.775Z,21.30
2019-01-30T04:55:54.764Z,23.40
2019-01-30T04:56:54.755Z,24.30
2019-01-30T04:57:54.738Z,21.70
2019-01-30T04:58:54.726Z,21.70
2019-01-30T04:59:54.719Z,23.10
2019-01-30T05:00:54.712Z,25.30
2019-01-30T05:01:54.698Z,24.00
2019-01-30T05:02:54.718Z,24.50
2019-01-30T05:03:54.708Z,25.50
2019-01-30T05:04:54.665Z,23.60
2019-01-30T05:05:54.647Z,21.50
2019-01-30T05:06:54.646Z,21.40
2019-01-30T05:07:54.630Z,23.30
2019-01-30T05:08:55.995Z,19.00
2019-01-30T05:09:54.624Z,21.40
2019-01-30T05:10:54.600Z,22.20
2019-01-30T05:11:54.582Z,20.50
2019-01-30T05:12:54.574Z,20.80
2019-01-30T05:13:54.562Z,21.90
2019-01-30T05:14:54.549Z,21.20
2019-01-30T05:15:54.538Z,21.30
2019-01-30T05:16:54.522Z,22.60
2019-01-30T05:17:54.509Z,23.90
2019-01-30T05:18:54.503Z,22.10
2019-01-30T05:19:54.490Z,22.30
2019-01-30T05:20:54.479Z,19.70
2019-01-30T05:21:54.466Z,21.10
2019-01-30T05:22:54.455Z,25.20
2019-01-30T05:23:54.451Z,22.30
2019-01-30T05:24:54.435Z,18.80
2019-01-30T05:25:54.438Z,21.40
2019-01-30T05:26:54.410Z,24.30
2019-01-30T05:27:54.398Z,22.90
2019-01-30T05:28:54.399Z,21.90
2019-01-30T05:29:54.378Z,19.50
2019-01-30T05:30:54.377Z,21.30
2019-01-30T05:32:00.989Z,20.10
2019-01-30T05:32:55.414Z,20.10
2019-01-30T05:33:54.332Z,23.10
2019-01-30T05:34:54.326Z,22.60
2019-01-30T05:35:54.311Z,22.70
2019-01-30T05:36:54.311Z,24.80
2019-01-30T05:37:54.288Z,20.40
2019-01-30T05:38:54.278Z,23.10
2019-01-30T05:39:54.299Z,25.80
2019-01-30T05:40:54.264Z,25.00
2019-01-30T05:41:54.253Z,25.10
2019-01-30T05:42:54.252Z,21.30
2019-01-30T05:43:54.234Z,22.00
2019-01-30T05:44:54.210Z,27.80
2019-01-30T05:45:54.216Z,23.40
2019-01-30T05:46:54.254Z,26.20
2019-01-30T05:47:54.190Z,26.50
2019-01-30T05:48:54.197Z,23.20
2019-01-30T05:49:54.195Z,23.80
2019-01-30T05:50:54.163Z,25.50
2019-01-30T05:51:54.141Z,21.60
2019-01-30T05:52:54.124Z,23.30
2019-01-30T05:53:54.122Z,23.40
2019-01-30T05:54:54.103Z,23.00
2019-01-30T05:55:54.085Z,24.10
2019-01-30T05:56:54.093Z,29.00
2019-01-30T05:57:54.082Z,23.80
2019-01-30T05:58:54.063Z,22.80
2019-01-30T05:59:54.074Z,21.10
2019-01-30T06:00:54.079Z,23.00
2019-01-30T06:01:54.027Z,22.30
2019-01-30T06:02:54.086Z,23.90
2019-01-30T06:03:54.013Z,23.60
2019-01-30T06:04:54.014Z,23.80
2019-01-30T06:05:53.995Z,23.50
2019-01-30T06:06:53.976Z,21.50
2019-01-30T06:07:53.959Z,23.70
2019-01-30T06:08:53.951Z,21.40
2019-01-30T06:09:53.939Z,23.70
2019-01-30T06:10:53.946Z,26.20
2019-01-30T06:11:53.918Z,25.40
2019-01-30T06:12:53.912Z,21.70
2019-01-30T06:13:53.895Z,23.80
2019-01-30T06:14:53.905Z,19.60
2019-01-30T06:15:53.878Z,23.70
2019-01-30T06:16:53.893Z,28.00
2019-01-30T06:17:53.937Z,25.20
2019-01-30T06:18:53.837Z,26.10
2019-01-30T06:19:53.832Z,24.50
2019-01-30T06:20:53.812Z,24.10
2019-01-30T06:21:53.807Z,22.30
2019-01-30T06:22:53.850Z,26.40
2019-01-30T06:23:53.788Z,23.10
2019-01-30T06:24:53.770Z,24.60
2019-01-30T06:25:53.778Z,20.50
2019-01-30T06:26:53.754Z,22.70
2019-01-30T06:27:53.748Z,23.20
2019-01-30T06:28:53.729Z,21.40
2019-01-30T06:29:53.710Z,19.40
2019-01-30T06:30:53.712Z,24.40
2019-01-30T06:31:53.705Z,22.80
2019-01-30T06:32:53.774Z,21.70
2019-01-30T06:33:53.688Z,22.50
2019-01-30T06:34:53.663Z,21.60
2019-01-30T06:35:53.652Z,25.80
2019-01-30T06:36:53.643Z,21.50
2019-01-30T06:37:53.626Z,24.30
2019-01-30T06:38:53.620Z,22.90
2019-01-30T06:39:53.603Z,21.40
2019-01-30T06:40:53.588Z,22.50
2019-01-30T06:41:53.574Z,21.70
2019-01-30T06:42:53.578Z,23.80
2019-01-30T06:43:53.558Z,23.10
2019-01-30T06:44:53.550Z,22.40
2019-01-30T06:45:53.538Z,26.00
2019-01-30T06:46:53.517Z,24.90
2019-01-30T06:47:53.508Z,27.60
2019-01-30T06:48:53.497Z,25.00
2019-01-30T06:49:53.507Z,22.50
2019-01-30T06:50:53.492Z,25.20
2019-01-30T06:51:53.471Z,23.30
2019-01-30T06:53:00.590Z,23.50
2019-01-30T06:54:35.126Z,24.10
2019-01-30T06:55:35.114Z,21.60
2019-01-30T06:57:16.800Z,21.50
2019-01-30T06:58:16.740Z,21.20
2019-01-30T06:59:58.850Z,27.20
2019-01-30T07:00:58.386Z,24.90
2019-01-30T07:02:40.569Z,22.10
2019-01-30T07:03:40.540Z,19.30
2019-01-30T07:04:40.518Z,20.70
2019-01-30T07:05:40.524Z,24.60
2019-01-30T07:06:40.502Z,23.80
2019-01-30T07:07:40.498Z,28.20
2019-01-30T07:08:40.483Z,21.00
2019-01-30T07:09:40.467Z,24.30
2019-01-30T07:10:40.458Z,21.40
2019-01-30T07:12:37.898Z,20.90
2019-01-30T07:13:37.874Z,19.30
2019-01-30T07:14:37.872Z,20.90
2019-01-30T07:15:37.852Z,20.60
2019-01-30T07:16:37.862Z,23.30
2019-01-30T07:17:37.888Z,21.70
2019-01-30T07:18:37.817Z,19.10
2019-01-30T07:19:37.809Z,22.10
2019-01-30T07:20:37.796Z,19.40
2019-01-30T07:21:37.791Z,18.80
2019-01-30T07:22:37.768Z,20.50
2019-01-30T07:23:37.760Z,19.30
2019-01-30T07:24:37.748Z,18.90
2019-01-30T07:25:37.737Z,19.50
2019-01-30T07:26:37.724Z,19.50
2019-01-30T07:27:37.776Z,20.50
2019-01-30T07:28:37.798Z,20.60
2019-01-30T07:29:37.696Z,22.60
2019-01-30T07:30:37.684Z,22.00
2019-01-30T07:31:37.678Z,22.70
2019-01-30T07:32:42.248Z,25.10
2019-01-30T07:33:37.649Z,21.80
2019-01-30T07:34:37.642Z,21.80
2019-01-30T07:35:37.702Z,23.40
2019-01-30T07:36:37.624Z,22.90
2019-01-30T07:37:37.649Z,22.80
2019-01-30T07:38:37.612Z,23.60
2019-01-30T07:39:37.610Z,25.30
2019-01-30T07:40:37.572Z,24.50
2019-01-30T07:41:37.647Z,24.10
2019-01-30T07:42:37.561Z,24.20
2019-01-30T07:43:37.541Z,25.50
2019-01-30T07:44:37.539Z,23.90
2019-01-30T07:45:37.522Z,21.70
2019-01-30T07:46:37.509Z,24.30
2019-01-30T07:47:37.492Z,22.60
2019-01-30T07:48:37.484Z,26.50
2019-01-30T07:49:37.507Z,24.30
2019-01-30T07:50:37.478Z,23.60
2019-01-30T07:51:37.459Z,22.20
2019-01-30T07:52:37.445Z,22.90
2019-01-30T07:53:37.427Z,24.90
2019-01-30T07:54:37.498Z,25.20
2019-01-30T07:55:37.414Z,21.70
2019-01-30T07:56:37.408Z,21.90
2019-01-30T07:57:37.383Z,21.40
2019-01-30T07:58:37.394Z,25.10
2019-01-30T07:59:37.358Z,23.70
2019-01-30T08:00:37.356Z,28.40
2019-01-30T08:01:37.350Z,26.60
2019-01-30T08:02:37.332Z,26.20
2019-01-30T08:03:38.951Z,26.80
2019-01-30T08:04:37.318Z,23.10
2019-01-30T08:05:37.302Z,29.90
2019-01-30T08:06:37.310Z,28.10
2019-01-30T08:07:37.280Z,32.50
2019-01-30T08:08:37.277Z,31.60
2019-01-30T08:09:37.256Z,32.50
2019-01-30T08:10:37.244Z,38.00
2019-01-30T08:11:37.263Z,30.50
2019-01-30T08:12:37.248Z,32.10
2019-01-30T08:13:37.220Z,34.40
2019-01-30T08:14:37.205Z,32.50
2019-01-30T08:15:37.203Z,32.00
2019-01-30T08:16:37.171Z,29.40
2019-01-30T08:17:37.161Z,31.20
2019-01-30T08:18:37.185Z,33.10
2019-01-30T08:19:37.183Z,29.80
2019-01-30T08:20:37.200Z,28.10
2019-01-30T08:21:37.136Z,32.00
2019-01-30T08:22:37.124Z,33.90
2019-01-30T08:23:37.244Z,32.10
2019-01-30T08:24:37.143Z,35.20
2019-01-30T08:25:37.305Z,34.30
2019-01-30T08:26:37.333Z,31.80
2019-01-30T08:27:37.067Z,30.60
2019-01-30T08:28:37.348Z,34.70
2019-01-30T08:29:37.033Z,33.40
2019-01-30T08:30:37.026Z,33.80
2019-01-30T08:31:37.456Z,33.90
2019-01-30T08:32:37.256Z,30.20
2019-01-30T08:33:37.014Z,31.20
2019-01-30T08:34:36.972Z,33.30
2019-01-30T08:35:36.990Z,31.10
2019-01-30T08:36:36.953Z,33.00
2019-01-30T08:37:38.556Z,32.20
2019-01-30T08:38:36.938Z,32.10
2019-01-30T08:39:36.923Z,32.70
2019-01-30T08:40:36.919Z,36.90
2019-01-30T08:41:36.897Z,30.60
2019-01-30T08:42:36.885Z,33.00
2019-01-30T08:43:36.881Z,26.20
2019-01-30T08:44:46.691Z,29.40
2019-01-30T08:45:37.853Z,28.60
2019-01-30T08:46:36.852Z,29.90
2019-01-30T08:47:36.872Z,35.40
2019-01-30T08:48:36.820Z,32.20
2019-01-30T08:49:36.846Z,30.90
2019-01-30T08:50:36.801Z,28.90
2019-01-30T08:51:36.789Z,36.00
2019-01-30T08:52:36.781Z,27.70
2019-01-30T08:53:36.775Z,28.40
2019-01-30T08:54:36.766Z,31.70
2019-01-30T08:55:36.753Z,30.90
2019-01-30T08:56:38.930Z,28.40
2019-01-30T08:57:36.725Z,27.30
2019-01-30T08:58:36.730Z,32.60
2019-01-30T08:59:36.706Z,32.60
2019-01-30T09:00:36.705Z,31.80
2019-01-30T09:01:36.677Z,29.70
2019-01-30T09:02:36.670Z,28.40
2019-01-30T09:03:36.653Z,26.10
2019-01-30T09:04:36.648Z,31.80
2019-01-30T09:05:36.648Z,28.10
2019-01-30T09:06:36.636Z,34.70
2019-01-30T09:07:43.982Z,31.50
2019-01-30T09:08:37.607Z,29.00
2019-01-30T09:09:36.597Z,31.70
2019-01-30T09:10:36.581Z,27.30
2019-01-30T09:11:36.575Z,31.10
2019-01-30T09:12:36.574Z,27.10
2019-01-30T09:13:36.555Z,32.20
2019-01-30T09:14:36.546Z,30.70
2019-01-30T09:15:36.556Z,28.30
2019-01-30T09:16:36.510Z,31.50
2019-01-30T09:17:36.511Z,33.50
2019-01-30T09:18:36.504Z,25.50
2019-01-30T09:19:36.480Z,26.70
2019-01-30T09:20:36.482Z,28.40
2019-01-30T09:21:36.462Z,29.20
2019-01-30T09:22:36.455Z,28.70
2019-01-30T09:23:36.445Z,30.60
2019-01-30T09:24:36.431Z,29.60
2019-01-30T09:25:36.422Z,30.40
2019-01-30T09:26:36.413Z,27.10
2019-01-30T09:27:36.408Z,29.60
2019-01-30T09:28:36.386Z,35.70
2019-01-30T09:29:36.380Z,35.50
2019-01-30T09:30:36.367Z,28.60
2019-01-30T09:31:36.353Z,29.20
2019-01-30T09:32:36.366Z,30.50
2019-01-30T09:33:36.337Z,29.20
2019-01-30T09:34:36.320Z,29.10
2019-01-30T09:35:36.314Z,35.30
2019-01-30T09:36:36.309Z,30.40
2019-01-30T09:37:36.294Z,37.00
2019-01-30T09:38:36.336Z,28.00
2019-01-30T09:39:36.271Z,30.80
2019-01-30T09:40:36.256Z,30.40
2019-01-30T09:41:36.262Z,31.90
2019-01-30T09:42:36.246Z,32.20
2019-01-30T09:43:36.301Z,31.80
2019-01-30T09:44:36.268Z,29.30
2019-01-30T09:45:36.260Z,25.30
2019-01-30T09:46:36.205Z,28.20
2019-01-30T09:47:36.232Z,29.40
2019-01-30T09:48:37.036Z,34.10
2019-01-30T09:49:36.158Z,28.60
2019-01-30T09:50:36.176Z,27.40
2019-01-30T09:51:36.159Z,29.10
2019-01-30T09:52:36.136Z,27.00
2019-01-30T09:53:36.206Z,26.00
2019-01-30T09:54:36.175Z,28.10
2019-01-30T09:55:36.105Z,26.70
2019-01-30T09:56:36.091Z,24.40
2019-01-30T09:57:36.071Z,28.40
2019-01-30T09:58:36.060Z,25.80
2019-01-30T09:59:36.056Z,29.20
2019-01-30T10:00:36.114Z,24.80
2019-01-30T10:01:36.079Z,23.30
2019-01-30T10:02:36.014Z,25.30
2019-01-30T10:03:36.761Z,24.30
2019-01-30T10:04:35.992Z,29.50
2019-01-30T10:05:35.984Z,26.20
2019-01-30T10:06:36.006Z,25.00
2019-01-30T10:07:35.960Z,25.30
2019-01-30T10:08:35.949Z,23.60
2019-01-30T10:09:37.608Z,23.40
2019-01-30T10:10:35.949Z,25.70
2019-01-30T10:11:35.932Z,24.80
2019-01-30T10:12:35.938Z,20.50
2019-01-30T10:13:37.528Z,25.10
2019-01-30T10:14:35.886Z,23.80
2019-01-30T10:15:35.908Z,22.60
2019-01-30T10:16:35.946Z,20.30
2019-01-30T10:17:35.863Z,24.50
2019-01-30T10:18:35.833Z,27.20
2019-01-30T10:19:35.827Z,24.10
2019-01-30T10:20:35.821Z,25.50
2019-01-30T10:21:35.841Z,23.60
2019-01-30T10:22:35.855Z,22.60
2019-01-30T10:23:35.848Z,21.20
2019-01-30T10:24:35.771Z,25.00
2019-01-30T10:25:35.758Z,24.60
2019-01-30T10:26:35.758Z,23.00
2019-01-30T10:27:35.744Z,23.60
2019-01-30T10:28:35.739Z,23.50
2019-01-30T10:29:35.729Z,25.50
2019-01-30T10:30:35.721Z,23.80
2019-01-30T10:31:35.695Z,20.30
2019-01-30T10:32:35.694Z,24.00
2019-01-30T10:33:45.698Z,18.00
2019-01-30T10:34:36.661Z,21.50
2019-01-30T10:35:35.656Z,20.50
2019-01-30T10:36:35.634Z,19.40
2019-01-30T10:37:35.632Z,21.50
2019-01-30T10:38:35.617Z,22.90
2019-01-30T10:39:35.604Z,23.10
2019-01-30T10:40:35.608Z,18.60
2019-01-30T10:41:35.591Z,21.50
2019-01-30T10:42:35.578Z,19.10
2019-01-30T10:43:35.715Z,17.80
2019-01-30T10:44:35.550Z,18.70
2019-01-30T10:45:38.151Z,19.70
2019-01-30T10:46:35.576Z,25.10
2019-01-30T10:47:35.530Z,17.10
2019-01-30T10:48:36.517Z,19.80
2019-01-30T10:49:35.582Z,18.10
2019-01-30T10:50:35.490Z,19.50
2019-01-30T10:51:35.484Z,21.20
2019-01-30T10:52:35.464Z,18.50
2019-01-30T10:53:35.455Z,23.40
2019-01-30T10:54:35.442Z,19.00
2019-01-30T10:55:35.427Z,18.70
2019-01-30T10:56:35.427Z,20.50
2019-01-30T10:57:35.415Z,17.80
2019-01-30T10:58:35.397Z,16.80
2019-01-30T10:59:35.383Z,19.40
2019-01-30T11:00:35.399Z,17.10
2019-01-30T11:01:35.360Z,14.80
2019-01-30T11:02:35.358Z,20.50
2019-01-30T11:03:35.336Z,15.30
2019-01-30T11:04:35.323Z,15.00
2019-01-30T11:05:35.308Z,16.00
2019-01-30T11:06:35.303Z,19.30
2019-01-30T11:07:35.291Z,16.40
2019-01-30T11:08:35.290Z,17.60
2019-01-30T11:09:35.267Z,18.50
2019-01-30T11:10:35.255Z,15.40
2019-01-30T11:11:35.244Z,19.20
2019-01-30T11:12:35.233Z,17.80
2019-01-30T11:13:35.230Z,15.70
2019-01-30T11:14:35.214Z,14.20
2019-01-30T11:15:35.204Z,14.40
2019-01-30T11:16:35.193Z,16.20
2019-01-30T11:17:35.183Z,15.60
2019-01-30T11:18:35.178Z,16.40
2019-01-30T11:19:35.164Z,15.80
2019-01-30T11:20:35.164Z,21.10
2019-01-30T11:21:35.142Z,19.80
2019-01-30T11:22:35.130Z,18.10
2019-01-30T11:23:35.110Z,14.40
2019-01-30T11:24:35.104Z,14.10
2019-01-30T11:25:35.095Z,17.90
2019-01-30T11:26:36.571Z,15.00
2019-01-30T11:27:35.071Z,15.40
2019-01-30T11:28:35.085Z,13.80
2019-01-30T11:29:35.054Z,19.10
2019-01-30T11:30:35.197Z,14.90
2019-01-30T11:31:35.031Z,15.60
2019-01-30T11:32:35.016Z,16.30
2019-01-30T11:33:35.007Z,15.90
2019-01-30T11:34:34.992Z,17.00
2019-01-30T11:35:34.981Z,15.30
2019-01-30T11:36:34.974Z,16.60
2019-01-30T11:37:34.964Z,16.80
2019-01-30T11:38:34.946Z,14.80
2019-01-30T11:39:34.934Z,16.40
2019-01-30T11:40:34.930Z,14.80
2019-01-30T11:41:34.914Z,17.00
2019-01-30T11:42:34.906Z,16.20
2019-01-30T11:43:34.894Z,18.80
2019-01-30T11:44:34.880Z,15.50
2019-01-30T11:45:34.870Z,15.20
2019-01-30T11:46:34.855Z,14.40
2019-01-30T11:47:34.860Z,15.30
2019-01-30T11:48:34.839Z,15.90
2019-01-30T11:49:34.823Z,16.20
2019-01-30T11:50:34.813Z,15.50
2019-01-30T11:51:34.809Z,18.40
2019-01-30T11:52:34.798Z,19.00
2019-01-30T11:53:34.782Z,15.10
2019-01-30T11:54:38.783Z,18.10
2019-01-30T11:55:34.759Z,17.90
2019-01-30T11:56:34.745Z,20.90
2019-01-30T11:57:34.736Z,17.30
2019-01-30T11:58:34.733Z,18.80
2019-01-30T11:59:34.720Z,17.40
2019-01-30T12:00:34.753Z,18.00
2019-01-30T12:01:34.702Z,17.40
2019-01-30T12:02:34.691Z,19.70
2019-01-30T12:03:34.676Z,17.40
2019-01-30T12:04:34.669Z,18.90
2019-01-30T12:05:34.739Z,17.60
2019-01-30T12:06:34.641Z,17.90
2019-01-30T12:07:34.631Z,18.20
2019-01-30T12:08:34.665Z,22.50
2019-01-30T12:09:34.607Z,17.20
2019-01-30T12:10:34.730Z,20.90
2019-01-30T12:11:34.588Z,21.80
2019-01-30T12:12:34.585Z,19.50
2019-01-30T12:13:34.579Z,20.40
2019-01-30T12:14:34.561Z,22.30
2019-01-30T12:15:34.548Z,25.00
2019-01-30T12:16:34.544Z,19.30
2019-01-30T12:17:34.526Z,21.00
2019-01-30T12:18:34.524Z,22.60
2019-01-30T12:19:34.513Z,22.10
2019-01-30T12:20:34.503Z,22.00
2019-01-30T12:21:34.488Z,21.70
2019-01-30T12:22:34.478Z,22.60
2019-01-30T12:23:34.482Z,16.50
2019-01-30T12:24:34.456Z,20.70
2019-01-30T12:25:34.448Z,16.60
2019-01-30T12:26:34.430Z,18.60
2019-01-30T12:27:34.422Z,17.20
2019-01-30T12:28:34.414Z,18.60
2019-01-30T12:29:34.395Z,16.20
2019-01-30T12:30:34.393Z,18.40
2019-01-30T12:31:34.393Z,17.00
2019-01-30T12:32:34.371Z,19.10
2019-01-30T12:33:34.357Z,19.40
2019-01-30T12:34:34.338Z,22.20
2019-01-30T12:35:34.326Z,16.40
2019-01-30T12:36:34.322Z,19.20
2019-01-30T12:37:34.305Z,19.70
2019-01-30T12:38:34.292Z,17.60
2019-01-30T12:39:34.287Z,17.70
2019-01-30T12:40:34.283Z,20.70
2019-01-30T12:41:35.848Z,19.30
2019-01-30T12:42:34.259Z,20.50
2019-01-30T12:43:34.308Z,22.00
2019-01-30T12:44:34.279Z,20.80
2019-01-30T12:45:34.227Z,20.80
2019-01-30T12:46:34.215Z,19.20
2019-01-30T12:47:34.216Z,16.40
2019-01-30T12:48:34.204Z,18.60
2019-01-30T12:49:34.180Z,20.70
2019-01-30T12:50:34.179Z,20.80
2019-01-30T12:51:36.182Z,17.80
2019-01-30T12:52:34.149Z,21.90
2019-01-30T12:53:34.900Z,19.10
2019-01-30T12:54:34.144Z,18.90
2019-01-30T12:55:34.114Z,19.60
2019-01-30T12:56:34.115Z,18.10